Saint Charles, Arkansas
Current Conditions -  °F | °C
As of 10:15 AM on Saturday 25 Oct 2014 (Local Time) from KSGT Reporting Station
Clear Clear  
Wind Chill: 72°   Ceiling: Unl
Heat Index: 72°   Visibility: 10mi
Dew Point: 59°   Wind: 13mph
Humidity: 64%   Direction: 250°WSW
Pressure: 30.13"   Gusts: NA
Location:  34.37°N, 91.14°W
Report Text: KSGT 251515Z AUTO 25011KT 10SM CLR 22/15 A3013 RMK AO1
Loading
Personal Weather Stations






























Interactive Weather Map
Tropical Storm Tracking
New forecast layout! Learn more

10-Day Weather Forecast

Advertisements
Track Severe Weather on mobile